TimePDT,TemperatureF,Dew PointF,Humidity,Sea Level PressureIn,VisibilityMPH,Wind Direction,Wind SpeedMPH,Gust SpeedMPH,PrecipitationIn,Events,Conditions,WindDirDegrees,DateUTC
12:55 AM,51.1,43.0,74,29.93,10.0,WNW,5.8,-,N/A,,Clear,300,2013-03-23 07:55:00
1:55 AM,48.0,39.0,71,29.93,10.0,East,4.6,-,N/A,,Clear,80,2013-03-23 08:55:00
2:55 AM,46.0,37.9,73,29.93,10.0,NNW,3.5,-,N/A,,Clear,330,2013-03-23 09:55:00
3:55 AM,46.0,37.0,71,29.93,10.0,Calm,Calm,-,N/A,,Clear,0,2013-03-23 10:55:00
4:55 AM,46.9,30.0,52,29.94,10.0,Calm,Calm,-,N/A,,Clear,0,2013-03-23 11:55:00
5:55 AM,45.0,33.1,63,29.95,10.0,NE,4.6,-,N/A,,Clear,50,2013-03-23 12:55:00
6:55 AM,44.1,30.9,60,29.98,10.0,Calm,Calm,-,N/A,,Clear,0,2013-03-23 13:55:00
7:55 AM,46.9,34.0,61,30.00,10.0,Calm,Calm,-,N/A,,Clear,0,2013-03-23 14:55:00
8:55 AM,55.9,30.9,39,30.02,10.0,ENE,3.5,-,N/A,,Clear,70,2013-03-23 15:55:00
9:55 AM,61.0,36.0,39,30.02,10.0,Calm,Calm,-,N/A,,Clear,0,2013-03-23 16:55:00
10:55 AM,66.0,41.0,40,30.02,10.0,WSW,5.8,-,N/A,,Clear,250,2013-03-23 17:55:00
11:55 AM,66.9,48.9,52,30.04,10.0,SW,11.5,-,N/A,,Clear,220,2013-03-23 18:55:00
12:55 PM,68.0,50.0,52,30.03,10.0,SW,10.4,-,N/A,,Clear,220,2013-03-23 19:55:00
1:55 PM,68.0,50.0,52,30.01,10.0,SW,12.7,18.4,N/A,,Clear,230,2013-03-23 20:55:00
2:55 PM,66.9,48.9,52,30.01,10.0,WSW,9.2,-,N/A,,Clear,240,2013-03-23 21:55:00
3:55 PM,66.9,50.0,54,29.99,10.0,SW,9.2,-,N/A,,Clear,220,2013-03-23 22:55:00
4:55 PM,64.9,51.1,61,29.98,10.0,SSW,11.5,-,N/A,,Clear,200,2013-03-23 23:55:00
5:55 PM,63.0,51.1,65,29.99,9.0,SSW,5.8,-,N/A,,Clear,200,2013-03-24 00:55:00
6:55 PM,62.1,48.0,60,29.99,10.0,Calm,Calm,-,N/A,,Clear,0,2013-03-24 01:55:00
7:55 PM,61.0,50.0,67,30.00,9.0,Calm,Calm,-,N/A,,Clear,0,2013-03-24 02:55:00
8:55 PM,57.9,50.0,75,30.01,7.0,Calm,Calm,-,N/A,,Clear,0,2013-03-24 03:55:00
9:55 PM,57.0,48.0,72,30.02,8.0,Calm,Calm,-,N/A,,Clear,0,2013-03-24 04:55:00
10:55 PM,55.0,46.9,74,30.01,8.0,Calm,Calm,-,N/A,,Clear,0,2013-03-24 05:55:00
11:55 PM,53.1,45.0,74,30.01,8.0,Calm,Calm,-,N/A,,Clear,0,2013-03-24 06:55:00